createdAt,value
2022-10-29T00:00:30.427Z,7.03
2022-10-29T00:02:58.717Z,6.85
2022-10-29T00:05:27.029Z,6.37
2022-10-29T00:07:55.372Z,6.60
2022-10-29T00:10:23.758Z,7.30
2022-10-29T00:12:52.020Z,7.33
2022-10-29T00:15:20.491Z,7.10
2022-10-29T00:17:48.707Z,7.28
2022-10-29T00:20:18.621Z,7.15
2022-10-29T00:22:46.993Z,6.78
2022-10-29T00:25:15.263Z,6.83
2022-10-29T00:27:43.485Z,7.17
2022-10-29T00:30:12.257Z,7.03
2022-10-29T00:32:40.469Z,6.87
2022-10-29T00:35:08.860Z,7.15
2022-10-29T00:37:37.074Z,6.80
2022-10-29T00:40:05.471Z,7.15
2022-10-29T00:42:33.680Z,7.65
2022-10-29T00:45:01.987Z,7.65
2022-10-29T00:47:31.727Z,7.08
2022-10-29T00:50:01.485Z,6.80
2022-10-29T00:52:31.590Z,7.83
2022-10-29T00:55:01.450Z,7.08
2022-10-29T00:57:34.152Z,7.17
2022-10-29T01:00:02.653Z,7.28
2022-10-29T01:02:32.564Z,7.22
2022-10-29T01:05:01.286Z,7.40
2022-10-29T01:07:29.570Z,7.05
2022-10-29T01:09:57.946Z,7.50
2022-10-29T01:12:27.688Z,7.55
2022-10-29T01:15:09.589Z,7.22
2022-10-29T01:17:57.786Z,7.12
2022-10-29T01:20:36.742Z,7.92
2022-10-29T01:23:06.694Z,8.03
2022-10-29T01:25:39.390Z,6.83
2022-10-29T01:28:25.801Z,8.00
2022-10-29T01:30:58.202Z,8.05
2022-10-29T01:33:27.942Z,7.33
2022-10-29T01:36:09.621Z,7.50
2022-10-29T01:38:42.230Z,7.58
2022-10-29T01:41:17.639Z,7.83
2022-10-29T01:43:47.410Z,7.60
2022-10-29T01:46:17.146Z,7.35
2022-10-29T01:48:46.950Z,7.53
2022-10-29T01:51:16.677Z,7.53
2022-10-29T01:53:44.953Z,8.00
2022-10-29T01:56:13.255Z,8.10
2022-10-29T01:58:42.989Z,7.20
2022-10-29T02:01:15.761Z,7.20
2022-10-29T02:03:45.605Z,7.60
2022-10-29T02:06:27.461Z,8.00
2022-10-29T02:08:57.216Z,7.55
2022-10-29T02:11:29.890Z,7.12
2022-10-29T02:13:59.558Z,7.92
2022-10-29T02:16:28.554Z,7.85
2022-10-29T02:18:57.967Z,7.45
2022-10-29T02:21:26.440Z,8.43
2022-10-29T02:23:54.644Z,7.37
2022-10-29T02:26:22.941Z,7.37
2022-10-29T02:28:51.217Z,8.03
2022-10-29T02:31:19.470Z,7.75
2022-10-29T02:33:47.840Z,7.75
2022-10-29T02:36:16.044Z,7.60
2022-10-29T02:38:44.267Z,8.25
2022-10-29T02:41:12.544Z,8.05
2022-10-29T02:43:40.829Z,7.12
2022-10-29T02:46:13.505Z,7.62
2022-10-29T02:48:41.803Z,7.40
2022-10-29T02:51:09.995Z,7.70
2022-10-29T02:53:38.150Z,7.55
2022-10-29T02:56:06.940Z,7.05
2022-10-29T02:58:35.598Z,7.92
2022-10-29T03:01:04.175Z,7.75
2022-10-29T03:03:32.581Z,8.23
2022-10-29T03:06:00.787Z,7.58
2022-10-29T03:08:28.995Z,7.30
2022-10-29T03:10:57.210Z,7.65
2022-10-29T03:13:25.469Z,7.47
2022-10-29T03:15:53.736Z,7.50
2022-10-29T03:18:21.963Z,7.35
2022-10-29T03:20:50.173Z,7.87
2022-10-29T03:23:18.371Z,7.17
2022-10-29T03:25:51.398Z,7.45
2022-10-29T03:28:17.950Z,7.58
2022-10-29T03:30:46.214Z,7.62
2022-10-29T03:33:14.523Z,6.58
2022-10-29T03:35:42.867Z,7.28
2022-10-29T03:38:11.073Z,8.03
2022-10-29T03:40:39.347Z,7.50
2022-10-29T03:43:07.558Z,7.72
2022-10-29T03:45:35.779Z,7.57
2022-10-29T03:48:04.971Z,7.28
2022-10-29T03:50:33.185Z,7.00
2022-10-29T03:53:01.409Z,7.03
2022-10-29T03:55:29.618Z,7.28
2022-10-29T03:57:58.124Z,7.33
2022-10-29T04:00:26.439Z,6.97
2022-10-29T04:02:55.157Z,7.33
2022-10-29T04:05:23.569Z,7.45
2022-10-29T04:07:51.777Z,6.95
2022-10-29T04:10:20.081Z,7.70
2022-10-29T04:12:48.279Z,7.13
2022-10-29T04:15:16.648Z,7.03
2022-10-29T04:17:44.930Z,7.33
2022-10-29T04:20:27.875Z,7.05
2022-10-29T04:28:41.354Z,8.20
2022-10-29T04:32:41.919Z,7.87
2022-10-29T04:35:10.130Z,7.17
2022-10-29T04:37:38.341Z,7.50
2022-10-29T04:40:06.766Z,8.07
2022-10-29T04:42:38.481Z,7.35
2022-10-29T04:45:07.080Z,7.10
2022-10-29T04:47:35.310Z,6.87
2022-10-29T04:50:03.583Z,7.12
2022-10-29T04:52:31.788Z,6.42
2022-10-29T04:54:59.988Z,6.92
2022-10-29T04:57:28.215Z,8.43
2022-10-29T04:59:56.455Z,9.35
2022-10-29T05:02:24.775Z,7.47
2022-10-29T05:04:52.975Z,6.92
2022-10-29T05:07:21.175Z,6.60
2022-10-29T05:09:49.386Z,6.83
2022-10-29T05:12:17.606Z,7.28
2022-10-29T05:14:45.804Z,7.15
2022-10-29T05:17:14.016Z,6.90
2022-10-29T05:19:42.232Z,7.08
2022-10-29T05:22:11.132Z,6.87
2022-10-29T05:24:39.351Z,6.50
2022-10-29T05:27:07.681Z,6.70
2022-10-29T05:29:35.897Z,6.92
2022-10-29T05:32:04.187Z,6.85
2022-10-29T05:34:32.449Z,6.60
2022-10-29T05:37:00.612Z,6.92
2022-10-29T05:39:28.797Z,6.95
2022-10-29T05:41:57.025Z,6.20
2022-10-29T05:44:25.236Z,6.15
2022-10-29T05:46:53.474Z,6.50
2022-10-29T05:49:21.668Z,6.70
2022-10-29T05:51:49.887Z,6.35
2022-10-29T05:54:18.162Z,6.90
2022-10-29T05:56:46.373Z,6.30
2022-10-29T05:59:14.589Z,6.83
2022-10-29T06:01:42.927Z,6.00
2022-10-29T06:04:11.187Z,6.87
2022-10-29T06:06:39.723Z,6.25
2022-10-29T06:09:08.025Z,6.00
2022-10-29T06:11:36.223Z,6.42
2022-10-29T06:14:04.444Z,6.65
2022-10-29T06:16:32.676Z,6.28
2022-10-29T06:19:00.904Z,6.78
2022-10-29T06:21:29.121Z,6.00
2022-10-29T06:23:57.339Z,5.95
2022-10-29T06:26:25.573Z,5.70
2022-10-29T06:28:53.780Z,6.10
2022-10-29T06:31:22.008Z,5.80
2022-10-29T06:33:50.190Z,5.62
2022-10-29T06:36:18.500Z,6.12
2022-10-29T06:38:46.698Z,6.08
2022-10-29T06:41:14.992Z,6.33
2022-10-29T06:43:43.193Z,6.00
2022-10-29T06:46:11.439Z,6.75
2022-10-29T06:48:39.650Z,6.30
2022-10-29T06:51:08.011Z,5.83
2022-10-29T06:53:37.365Z,5.67
2022-10-29T06:56:05.643Z,5.95
2022-10-29T06:58:33.891Z,6.10
2022-10-29T07:01:02.306Z,6.08
2022-10-29T07:03:30.603Z,5.55
2022-10-29T07:05:59.595Z,5.78
2022-10-29T07:08:28.747Z,6.05
2022-10-29T07:10:57.300Z,5.85
2022-10-29T07:13:25.573Z,6.05
2022-10-29T07:15:53.810Z,5.20
2022-10-29T07:18:22.076Z,5.95
2022-10-29T07:20:50.309Z,5.40
2022-10-29T07:23:18.601Z,5.53
2022-10-29T07:25:46.820Z,5.92
2022-10-29T07:28:16.333Z,5.45
2022-10-29T07:30:45.374Z,5.00
2022-10-29T07:33:13.783Z,5.42
2022-10-29T07:35:42.275Z,5.28
2022-10-29T07:38:11.645Z,5.17
2022-10-29T07:40:40.736Z,5.73
2022-10-29T07:43:09.423Z,5.45
2022-10-29T07:45:37.638Z,5.60
2022-10-29T07:48:07.718Z,5.70
2022-10-29T07:50:36.326Z,6.17
2022-10-29T07:53:05.406Z,5.92
2022-10-29T07:55:33.705Z,5.28
2022-10-29T07:58:03.088Z,5.85
2022-10-29T08:00:32.385Z,5.35
2022-10-29T08:03:00.656Z,6.37
2022-10-29T08:05:30.061Z,5.50
2022-10-29T08:07:59.195Z,5.83
2022-10-29T08:10:28.015Z,5.87
2022-10-29T08:12:57.597Z,5.83
2022-10-29T08:15:26.786Z,5.60
2022-10-29T08:17:55.249Z,5.22
2022-10-29T08:20:24.340Z,5.42
2022-10-29T08:22:52.554Z,5.85
2022-10-29T08:25:22.081Z,5.58
2022-10-29T08:28:00.615Z,5.33
2022-10-29T08:30:28.806Z,5.17
2022-10-29T08:32:57.440Z,5.05
2022-10-29T08:35:25.984Z,5.37
2022-10-29T08:37:54.186Z,5.40
2022-10-29T08:40:26.620Z,5.97
2022-10-29T08:43:02.202Z,5.20
2022-10-29T08:45:31.935Z,5.00
2022-10-29T08:48:04.595Z,5.40
2022-10-29T08:50:34.418Z,4.80
2022-10-29T08:53:22.274Z,4.63
2022-10-29T08:55:36.936Z,4.67
2022-10-29T08:58:15.630Z,5.12
2022-10-29T09:00:44.191Z,4.75
2022-10-29T09:03:12.890Z,5.15
2022-10-29T09:05:51.547Z,4.67
2022-10-29T09:08:39.322Z,4.17
2022-10-29T09:11:09.145Z,5.15
2022-10-29T09:13:41.530Z,4.10
2022-10-29T09:16:17.375Z,4.00
2022-10-29T09:18:47.753Z,4.33
2022-10-29T09:21:26.228Z,4.33
2022-10-29T09:23:58.921Z,4.75
2022-10-29T09:26:28.778Z,4.17
2022-10-29T09:29:14.669Z,4.25
2022-10-29T09:31:50.332Z,4.22
2022-10-29T09:34:20.074Z,4.83
2022-10-29T09:36:49.070Z,4.80
2022-10-29T09:39:21.934Z,4.55
2022-10-29T09:41:48.924Z,4.45
2022-10-29T09:44:21.588Z,4.47
2022-10-29T09:46:54.029Z,4.62
2022-10-29T09:49:26.654Z,4.28
2022-10-29T09:51:56.396Z,4.47
2022-10-29T09:54:26.157Z,4.78
2022-10-29T09:56:56.093Z,4.37
2022-10-29T09:59:28.997Z,4.12
2022-10-29T10:01:58.556Z,3.87
2022-10-29T10:04:28.473Z,4.62
2022-10-29T10:07:06.569Z,4.15
2022-10-29T10:09:39.211Z,4.50
2022-10-29T10:12:10.473Z,3.75
2022-10-29T10:14:40.496Z,3.98
2022-10-29T10:17:08.772Z,4.42
2022-10-29T10:19:38.510Z,4.08
2022-10-29T10:22:11.355Z,5.00
2022-10-29T10:24:37.940Z,4.03
2022-10-29T10:27:16.827Z,4.37
2022-10-29T10:29:48.156Z,4.05
2022-10-29T10:32:19.399Z,4.10
2022-10-29T10:34:49.365Z,4.47
2022-10-29T10:40:15.248Z,4.30
2022-10-29T10:42:46.970Z,4.15
2022-10-29T10:45:25.895Z,3.50
2022-10-29T10:48:00.772Z,4.08
2022-10-29T10:50:39.885Z,3.70
2022-10-29T10:53:19.854Z,4.58
2022-10-29T10:56:10.159Z,4.65
2022-10-29T10:58:45.656Z,3.95
2022-10-29T11:01:22.269Z,4.05
2022-10-29T11:03:58.097Z,4.20
2022-10-29T11:06:42.248Z,3.80
2022-10-29T11:09:21.023Z,4.45
2022-10-29T11:11:54.964Z,4.53
2022-10-29T11:14:22.406Z,4.75
2022-10-29T11:16:52.535Z,3.77
2022-10-29T11:19:34.200Z,4.28
2022-10-29T11:22:19.240Z,3.77
2022-10-29T11:24:49.557Z,4.20
2022-10-29T11:27:22.596Z,4.70
2022-10-29T11:29:52.384Z,3.27
2022-10-29T11:32:22.197Z,3.58
2022-10-29T11:35:10.086Z,4.10
2022-10-29T11:37:51.919Z,4.95
2022-10-29T11:40:24.419Z,4.95
2022-10-29T11:42:52.733Z,4.83
2022-10-29T11:45:40.915Z,4.58
2022-10-29T11:48:21.477Z,4.75
2022-10-29T11:51:04.632Z,3.95
2022-10-29T11:53:43.523Z,4.60
2022-10-29T11:56:13.294Z,4.55
2022-10-29T11:58:59.539Z,4.45
2022-10-29T12:01:41.385Z,4.23
2022-10-29T12:04:15.779Z,4.77
2022-10-29T12:06:52.791Z,4.58
2022-10-29T12:09:34.558Z,3.92
2022-10-29T12:12:13.493Z,4.80
2022-10-29T12:14:43.226Z,4.43
2022-10-29T12:17:27.941Z,4.80
2022-10-29T12:20:12.611Z,4.87
2022-10-29T12:22:48.443Z,4.37
2022-10-29T12:25:24.020Z,4.08
2022-10-29T12:27:56.730Z,4.50
2022-10-29T12:30:24.965Z,4.47
2022-10-29T12:33:09.842Z,4.53
2022-10-29T12:35:39.616Z,4.50
2022-10-29T12:38:09.428Z,5.00
2022-10-29T12:40:39.265Z,4.00
2022-10-29T12:43:08.830Z,4.43
2022-10-29T12:45:53.030Z,4.30
2022-10-29T12:48:17.589Z,4.55
2022-10-29T12:50:47.512Z,4.85
2022-10-29T12:53:20.216Z,4.23
2022-10-29T12:55:48.983Z,4.60
2022-10-29T12:58:24.674Z,4.42
2022-10-29T13:00:53.390Z,4.20
2022-10-29T13:03:42.366Z,4.55
2022-10-29T13:06:28.014Z,4.30
2022-10-29T13:08:57.126Z,4.83
2022-10-29T13:11:25.860Z,4.37
2022-10-29T13:13:56.020Z,4.37
2022-10-29T13:16:26.032Z,4.65
2022-10-29T13:19:04.870Z,4.10
2022-10-29T13:21:37.695Z,4.80
2022-10-29T13:24:06.141Z,4.30
2022-10-29T13:26:52.449Z,4.00
2022-10-29T13:29:38.735Z,4.58
2022-10-29T13:32:07.502Z,4.40
2022-10-29T13:34:52.719Z,4.58
2022-10-29T13:37:39.884Z,4.25
2022-10-29T13:40:25.082Z,4.22
2022-10-29T13:43:05.141Z,4.55
2022-10-29T13:45:34.701Z,4.20
2022-10-29T13:48:04.724Z,4.20
2022-10-29T13:50:46.947Z,4.37
2022-10-29T13:53:17.155Z,4.67
2022-10-29T13:55:56.312Z,4.50
2022-10-29T13:58:42.922Z,4.47
2022-10-29T14:01:18.542Z,4.23
2022-10-29T14:04:11.213Z,4.57
2022-10-29T14:07:00.923Z,4.60
2022-10-29T14:09:53.034Z,4.35
2022-10-29T14:12:33.180Z,4.15
2022-10-29T14:15:12.492Z,4.28
2022-10-29T14:17:44.118Z,4.53
2022-10-29T14:20:28.971Z,3.90
2022-10-29T14:22:58.727Z,4.33
2022-10-29T14:25:28.848Z,3.60
2022-10-29T14:28:13.787Z,3.90
2022-10-29T14:30:42.139Z,3.87
2022-10-29T14:33:23.981Z,4.20
2022-10-29T14:35:52.750Z,4.33
2022-10-29T14:38:22.369Z,4.58
2022-10-29T14:40:50.590Z,4.35
2022-10-29T14:43:20.687Z,3.37
2022-10-29T14:45:50.097Z,3.60
2022-10-29T14:48:18.968Z,3.70
2022-10-29T14:50:59.351Z,3.80
2022-10-29T14:53:29.734Z,4.30
2022-10-29T14:56:03.719Z,3.97
2022-10-29T14:58:36.258Z,3.80
2022-10-29T15:01:15.486Z,4.30
2022-10-29T15:03:39.884Z,3.75
2022-10-29T15:06:21.263Z,3.93
2022-10-29T15:08:56.983Z,4.45
2022-10-29T15:11:33.615Z,4.40
2022-10-29T15:14:02.349Z,4.35
2022-10-29T15:16:35.701Z,4.03
2022-10-29T15:19:02.010Z,4.30
2022-10-29T15:21:31.912Z,4.20
2022-10-29T15:24:05.952Z,3.98
2022-10-29T15:26:35.966Z,4.70
2022-10-29T15:29:05.855Z,4.37
2022-10-29T15:31:35.654Z,4.20
2022-10-29T15:34:22.591Z,4.37
2022-10-29T15:37:03.468Z,4.47
2022-10-29T15:39:33.319Z,3.85
2022-10-29T15:42:04.623Z,4.10
2022-10-29T15:44:37.879Z,4.47
2022-10-29T15:47:19.766Z,4.53
2022-10-29T15:49:48.098Z,4.43
2022-10-29T15:52:17.701Z,4.58
2022-10-29T15:54:46.859Z,4.70
2022-10-29T15:57:17.590Z,4.72
2022-10-29T15:59:52.080Z,4.70
2022-10-29T16:02:17.984Z,4.70
2022-10-29T16:04:46.294Z,4.95
2022-10-29T16:07:15.108Z,4.92
2022-10-29T16:09:49.595Z,4.35
2022-10-29T16:12:18.041Z,4.83
2022-10-29T16:14:48.252Z,5.20
2022-10-29T16:17:21.114Z,5.15
2022-10-29T16:19:49.517Z,4.80
2022-10-29T16:22:19.236Z,4.90
2022-10-29T16:24:47.612Z,5.60
2022-10-29T16:27:17.348Z,4.63
2022-10-29T16:29:49.795Z,4.70
2022-10-29T16:32:19.241Z,4.95
2022-10-29T16:34:47.861Z,4.97
2022-10-29T16:37:17.842Z,4.70
2022-10-29T16:39:46.489Z,4.58
2022-10-29T16:42:16.261Z,4.65
2022-10-29T16:44:45.844Z,5.05
2022-10-29T16:47:14.356Z,5.10
2022-10-29T16:49:42.603Z,4.20
2022-10-29T16:52:16.136Z,4.70
2022-10-29T16:54:51.238Z,4.60
2022-10-29T16:57:19.470Z,4.50
2022-10-29T16:59:47.859Z,4.22
2022-10-29T17:02:16.369Z,5.33
2022-10-29T17:04:47.559Z,4.67
2022-10-29T17:07:16.828Z,5.35
2022-10-29T17:09:45.557Z,5.50
2022-10-29T17:12:14.173Z,5.28
2022-10-29T17:14:42.858Z,5.12
2022-10-29T17:17:12.340Z,5.10
2022-10-29T17:19:45.105Z,5.05
2022-10-29T17:22:15.238Z,5.00
2022-10-29T17:24:55.899Z,5.05
2022-10-29T17:27:22.845Z,5.17
2022-10-29T17:29:53.203Z,4.92
2022-10-29T17:32:22.756Z,4.85
2022-10-29T17:37:35.196Z,4.77
2022-10-29T17:40:09.227Z,5.00
2022-10-29T17:42:39.084Z,5.00
2022-10-29T17:45:09.796Z,4.72
2022-10-29T17:48:00.063Z,4.58
2022-10-29T17:50:31.297Z,4.78
2022-10-29T17:53:01.384Z,5.12
2022-10-29T17:55:34.165Z,4.80
2022-10-29T17:58:15.474Z,4.87
2022-10-29T18:03:35.670Z,4.58
2022-10-29T18:06:08.635Z,4.60
2022-10-29T18:09:13.749Z,5.10
2022-10-29T18:11:52.321Z,5.08
2022-10-29T18:14:26.230Z,4.87
2022-10-29T18:16:57.658Z,5.10
2022-10-29T18:19:31.024Z,4.95
2022-10-29T18:22:08.756Z,5.15
2022-10-29T18:25:05.000Z,5.00
2022-10-29T18:27:47.544Z,4.95
2022-10-29T18:30:29.482Z,4.70
2022-10-29T18:33:18.210Z,5.47
2022-10-29T18:35:59.599Z,5.28
2022-10-29T18:38:41.206Z,5.03
2022-10-29T18:41:19.685Z,4.70
2022-10-29T18:43:49.857Z,4.45
2022-10-29T18:46:29.437Z,5.15
2022-10-29T18:48:59.175Z,4.40
2022-10-29T18:51:42.280Z,4.17
2022-10-29T18:54:11.157Z,4.80
2022-10-29T18:56:40.581Z,4.37
2022-10-29T18:59:13.612Z,4.97
2022-10-29T19:01:58.542Z,4.67
2022-10-29T19:04:27.110Z,4.67
2022-10-29T19:06:58.350Z,4.97
2022-10-29T19:09:33.092Z,5.10
2022-10-29T19:12:03.777Z,4.70
2022-10-29T19:14:31.281Z,5.25
2022-10-29T19:16:59.865Z,5.40
2022-10-29T19:19:28.335Z,5.37
2022-10-29T19:22:00.105Z,4.30
2022-10-29T19:24:28.759Z,5.27
2022-10-29T19:26:57.008Z,5.60
2022-10-29T19:29:25.320Z,5.67
2022-10-29T19:31:55.112Z,5.08
2022-10-29T19:34:25.073Z,5.17
2022-10-29T19:36:53.486Z,5.20
2022-10-29T19:39:21.693Z,5.00
2022-10-29T19:41:51.641Z,5.65
2022-10-29T19:44:19.955Z,5.20
2022-10-29T19:46:48.183Z,5.42
2022-10-29T19:49:20.722Z,5.33
2022-10-29T19:51:57.363Z,5.20
2022-10-29T19:54:22.754Z,5.10
2022-10-29T19:56:50.945Z,6.00
2022-10-29T19:59:23.652Z,5.22
2022-10-29T20:01:52.212Z,4.97
2022-10-29T20:04:25.257Z,5.67
2022-10-29T20:07:06.188Z,5.17
2022-10-29T20:09:36.260Z,5.12
2022-10-29T20:12:05.976Z,5.67
2022-10-29T20:14:41.065Z,5.25
2022-10-29T20:17:08.542Z,5.25
2022-10-29T20:19:39.480Z,5.20
2022-10-29T20:22:10.893Z,4.90
2022-10-29T20:24:40.793Z,4.83
2022-10-29T20:27:13.548Z,5.10
2022-10-29T20:29:44.176Z,4.80
2022-10-29T20:32:12.428Z,5.35
2022-10-29T20:34:43.595Z,5.28
2022-10-29T20:37:11.861Z,5.10
2022-10-29T20:39:41.184Z,5.33
2022-10-29T20:42:27.294Z,5.53
2022-10-29T20:45:00.610Z,4.83
2022-10-29T20:47:28.819Z,5.42
2022-10-29T20:50:15.083Z,4.80
2022-10-29T20:52:48.422Z,5.03
2022-10-29T20:55:24.562Z,5.25
2022-10-29T21:00:57.420Z,4.80
2022-10-29T21:03:41.236Z,4.80
2022-10-29T21:06:15.667Z,4.87
2022-10-29T21:08:47.262Z,5.60
2022-10-29T21:11:16.948Z,5.50
2022-10-29T21:13:58.269Z,4.97
2022-10-29T21:16:33.908Z,4.87
2022-10-29T21:19:26.522Z,4.78
2022-10-29T21:27:50.643Z,5.30
2022-10-29T21:30:28.197Z,5.37
2022-10-29T21:33:06.537Z,4.95
2022-10-29T21:35:37.856Z,5.17
2022-10-29T21:38:20.376Z,5.22
2022-10-29T21:40:50.166Z,5.65
2022-10-29T21:46:11.252Z,5.28
2022-10-29T21:49:02.364Z,4.70
2022-10-29T21:51:34.224Z,5.20
2022-10-29T21:54:20.084Z,5.00
2022-10-29T21:56:57.958Z,4.83
2022-10-29T21:59:31.395Z,4.40
2022-10-29T22:02:08.279Z,5.00
2022-10-29T22:05:00.644Z,5.00
2022-10-29T22:07:28.811Z,5.27
2022-10-29T22:09:57.025Z,4.58
2022-10-29T22:12:25.233Z,4.72
2022-10-29T22:14:53.529Z,4.72
2022-10-29T22:17:21.818Z,4.62
2022-10-29T22:19:50.492Z,4.63
2022-10-29T22:22:18.716Z,4.60
2022-10-29T22:24:46.943Z,4.70
2022-10-29T22:27:15.157Z,4.58
2022-10-29T22:29:43.385Z,4.72
2022-10-29T22:32:11.569Z,4.90
2022-10-29T22:34:39.971Z,4.93
2022-10-29T22:37:08.168Z,5.40
2022-10-29T22:39:36.377Z,4.50
2022-10-29T22:42:04.583Z,4.55
2022-10-29T22:44:32.809Z,5.00
2022-10-29T22:47:01.029Z,4.83
2022-10-29T22:49:29.263Z,4.65
2022-10-29T22:52:01.583Z,5.35
2022-10-29T22:54:29.382Z,4.62
2022-10-29T22:56:57.586Z,5.13
2022-10-29T22:59:25.811Z,5.45
2022-10-29T23:01:54.106Z,4.80
2022-10-29T23:04:22.501Z,5.10
2022-10-29T23:06:50.730Z,4.85
2022-10-29T23:09:18.950Z,4.95
2022-10-29T23:11:47.256Z,4.75
2022-10-29T23:14:15.472Z,5.03
2022-10-29T23:16:43.688Z,4.97
2022-10-29T23:19:12.096Z,5.00
2022-10-29T23:21:40.404Z,4.62
2022-10-29T23:24:08.946Z,5.57
2022-10-29T23:26:37.161Z,4.78
2022-10-29T23:29:05.376Z,4.83
2022-10-29T23:31:33.643Z,5.13
2022-10-29T23:34:01.879Z,5.12
2022-10-29T23:36:30.096Z,5.50
2022-10-29T23:38:58.963Z,5.05
2022-10-29T23:41:28.717Z,5.03
2022-10-29T23:43:57.487Z,5.33
2022-10-29T23:46:25.750Z,4.90
2022-10-29T23:48:54.241Z,5.08
2022-10-29T23:51:22.525Z,4.72
2022-10-29T23:53:54.720Z,5.10
2022-10-29T23:56:20.637Z,4.83
2022-10-29T23:58:50.400Z,5.00
